Terminal Aerodrome Forecast
Issued by NWS Wilmington, OH

Current Version | Previous Version | Graphics & Text | Print | Product List | Glossary On
Versions: 1 2 3 4 5 6 7 8 9 10 11 12
000
FTUS41 KILN 082300
TAFDAY
TAF
KDAY 082330Z 0900/0924 26008KT P6SM SCT050
     FM091500 27010KT P6SM BKN040
     FM092100 31010KT P6SM BKN050=

USA.gov is the U.S. government's official web portal to all federal, state and local government web resources and services.